createdAt,value
2016-01-30T00:05:52.184Z,41
2016-01-30T00:07:38.641Z,41
2016-01-30T00:50:41.508Z,42
2016-01-30T00:51:09.385Z,39
2016-01-30T00:52:34.016Z,40
2016-01-30T15:59:23.770Z,68
2016-01-30T15:59:34.505Z,68
2016-01-30T15:59:51.194Z,68
2016-01-30T16:00:02.819Z,68
2016-01-30T16:00:16.116Z,68
2016-01-30T16:00:27.384Z,68
2016-01-30T16:00:38.415Z,68
2016-01-30T16:00:49.087Z,68
2016-01-30T16:00:59.555Z,68
2016-01-30T16:02:08.621Z,67
2016-01-30T16:02:21.871Z,67
2016-01-30T16:02:32.515Z,67
2016-01-30T16:02:43.390Z,68
2016-01-30T16:02:54.202Z,68
2016-01-30T16:03:06.702Z,68
2016-01-30T16:03:21.343Z,68
2016-01-30T16:03:32.049Z,68
2016-01-30T16:03:44.393Z,68
2016-01-30T16:03:57.976Z,68
2016-01-30T16:04:15.632Z,67
2016-01-30T16:04:31.979Z,67
2016-01-30T16:04:44.963Z,67
2016-01-30T16:04:57.307Z,67
2016-01-30T16:05:10.822Z,67
2016-01-30T16:05:23.025Z,67
2016-01-30T16:05:34.309Z,68
2016-01-30T16:08:27.160Z,68
2016-01-30T16:08:38.551Z,68
2016-01-30T16:08:49.098Z,68
2016-01-30T16:08:59.848Z,68
2016-01-30T16:09:10.645Z,68
2016-01-30T16:09:22.442Z,68
2016-01-30T16:09:33.445Z,68
2016-01-30T16:09:46.851Z,68
2016-01-30T16:10:03.320Z,68
2016-01-30T16:11:10.916Z,68
2016-01-30T16:11:21.651Z,68
2016-01-30T16:11:32.838Z,68
2016-01-30T16:11:43.685Z,68
2016-01-30T16:11:54.419Z,68
2016-01-30T16:12:05.138Z,68
2016-01-30T16:12:31.451Z,68
2016-01-30T16:12:43.812Z,68
2016-01-30T16:12:54.734Z,68
2016-01-30T16:13:06.109Z,68
2016-01-30T16:13:16.875Z,68
2016-01-30T16:13:27.625Z,68
2016-01-30T16:13:38.328Z,68
2016-01-30T16:13:49.253Z,68
2016-01-30T16:14:00.065Z,68
2016-01-30T16:14:10.956Z,68
2016-01-30T16:14:21.643Z,67
2016-01-30T16:14:32.424Z,68
2016-01-30T16:14:43.927Z,68
2016-01-30T16:14:57.396Z,68
2016-01-30T16:15:14.943Z,68
2016-01-30T16:15:27.459Z,68
2016-01-30T16:15:38.287Z,68
2016-01-30T16:15:48.884Z,68
2016-01-30T16:16:00.134Z,68
2016-01-30T16:16:10.977Z,68
2016-01-30T16:16:22.337Z,67
2016-01-30T16:16:34.696Z,67
2016-01-30T16:16:46.090Z,67
2016-01-30T16:16:58.965Z,68
2016-01-30T16:17:10.996Z,67
2016-01-30T16:17:41.340Z,67
2016-01-30T16:17:55.045Z,67
2016-01-30T16:19:06.098Z,68
2016-01-30T16:19:19.660Z,68
2016-01-30T16:19:32.520Z,69
2016-01-30T16:19:43.770Z,69
2016-01-30T16:19:54.582Z,69
2016-01-30T16:20:07.898Z,69
2016-01-30T16:20:19.648Z,68
2016-01-30T16:20:30.460Z,68
2016-01-30T16:20:42.538Z,68
2016-01-30T16:20:55.194Z,68
2016-01-30T16:21:06.322Z,68
2016-01-30T16:21:17.119Z,68
2016-01-30T16:21:29.979Z,68
2016-01-30T16:21:42.416Z,67
2016-01-30T16:21:54.416Z,67
2016-01-30T16:22:05.826Z,68
2016-01-30T16:22:16.483Z,68
2016-01-30T16:22:27.264Z,68
2016-01-30T16:22:39.436Z,68
2016-01-30T16:22:52.280Z,68
2016-01-30T16:23:05.313Z,68
2016-01-30T16:23:18.924Z,68
2016-01-30T16:23:32.002Z,68
2016-01-30T16:23:42.549Z,68
2016-01-30T16:23:53.440Z,68
2016-01-30T16:24:08.802Z,68
2016-01-30T16:24:19.677Z,68
2016-01-30T16:24:30.958Z,68
2016-01-30T16:24:44.052Z,68
2016-01-30T16:24:54.646Z,68
2016-01-30T16:25:06.696Z,68
2016-01-30T16:25:25.883Z,67
2016-01-30T16:25:36.711Z,67
2016-01-30T16:25:47.289Z,67
2016-01-30T16:25:58.104Z,68
2016-01-30T16:26:09.026Z,68
2016-01-30T16:26:20.088Z,68
2016-01-30T16:26:30.838Z,68
2016-01-30T16:26:48.307Z,67
2016-01-30T16:27:02.169Z,68
2016-01-30T16:27:15.951Z,67
2016-01-30T16:27:30.232Z,67
2016-01-30T16:27:41.610Z,68
2016-01-30T16:27:52.516Z,67
2016-01-30T16:28:10.144Z,67
2016-01-30T16:28:22.207Z,67
2016-01-30T16:28:32.925Z,67
2016-01-30T16:28:45.379Z,67
2016-01-30T16:28:58.582Z,68
2016-01-30T16:29:10.084Z,68
2016-01-30T16:29:22.334Z,68
2016-01-30T16:29:33.162Z,67
2016-01-30T16:29:43.849Z,67
2016-01-30T16:29:56.990Z,67
2016-01-30T16:30:10.384Z,67
2016-01-30T16:30:22.180Z,67
2016-01-30T16:30:34.946Z,67
2016-01-30T16:30:46.727Z,67
2016-01-30T16:30:59.340Z,67
2016-01-30T16:31:11.605Z,67
2016-01-30T16:31:25.074Z,67
2016-01-30T16:31:35.793Z,68
2016-01-30T16:31:46.387Z,68
2016-01-30T16:31:57.277Z,67
2016-01-30T16:32:11.483Z,67
2016-01-30T16:32:21.952Z,67
2016-01-30T16:32:32.733Z,67
2016-01-30T16:32:43.233Z,67
2016-01-30T16:32:54.624Z,67
2016-01-30T16:33:05.048Z,67
2016-01-30T16:33:15.782Z,67
2016-01-30T16:33:28.735Z,67
2016-01-30T16:33:39.376Z,67
2016-01-30T16:33:51.204Z,67
2016-01-30T16:34:03.128Z,67
2016-01-30T16:34:14.378Z,67
2016-01-30T16:35:35.351Z,67
2016-01-30T16:36:21.885Z,67
2016-01-30T16:36:32.432Z,67
2016-01-30T16:36:42.947Z,67
2016-01-30T16:36:54.276Z,67
2016-01-30T16:37:04.994Z,67
2016-01-30T16:37:17.043Z,67
2016-01-30T16:37:30.184Z,67
2016-01-30T16:37:40.762Z,67
2016-01-30T16:37:51.340Z,67
2016-01-30T16:38:05.621Z,67
2016-01-30T16:38:18.203Z,67
2016-01-30T16:38:28.688Z,67
2016-01-30T16:38:41.610Z,67
2016-01-30T16:38:53.922Z,67
2016-01-30T16:39:06.657Z,67
2016-01-30T16:39:17.410Z,67
2016-01-30T16:39:30.316Z,66
2016-01-30T16:39:43.003Z,67
2016-01-30T16:39:55.785Z,67
2016-01-30T16:40:10.413Z,67
2016-01-30T16:40:23.069Z,68
2016-01-30T16:40:34.803Z,67
2016-01-30T16:40:46.225Z,67
2016-01-30T16:40:59.616Z,67
2016-01-30T16:41:12.149Z,67
2016-01-30T16:41:24.430Z,67
2016-01-30T16:41:35.790Z,66
2016-01-30T16:41:46.368Z,66
2016-01-30T16:43:05.011Z,66
2016-01-30T16:43:16.624Z,67
2016-01-30T16:43:28.421Z,67
2016-01-30T16:43:40.092Z,67
2016-01-30T16:43:52.233Z,66
2016-01-30T16:44:06.983Z,66
2016-01-30T16:44:17.391Z,66
2016-01-30T16:44:31.454Z,66
2016-01-30T16:44:45.251Z,66
2016-01-30T16:45:58.488Z,67
2016-01-30T16:46:09.269Z,67
2016-01-30T16:46:21.444Z,67
2016-01-30T16:46:34.210Z,67
2016-01-30T16:47:40.073Z,66
2016-01-30T16:47:50.729Z,67
2016-01-30T16:48:01.557Z,67
2016-01-30T16:48:13.057Z,67
2016-01-30T16:48:24.779Z,66
2016-01-30T16:48:36.264Z,66
2016-01-30T16:48:46.951Z,66
2016-01-30T16:48:57.560Z,66
2016-01-30T16:49:10.170Z,66
2016-01-30T16:49:22.032Z,66
2016-01-30T16:49:32.501Z,66
2016-01-30T16:49:43.767Z,67
2016-01-30T16:49:56.376Z,66
2016-01-30T16:50:11.173Z,66
2016-01-30T16:50:22.785Z,66
2016-01-30T16:50:33.395Z,66
2016-01-30T16:50:44.176Z,66
2016-01-30T16:50:57.176Z,66
2016-01-30T16:51:09.285Z,66
2016-01-30T16:51:19.663Z,66
2016-01-30T16:51:31.288Z,66
2016-01-30T16:51:43.507Z,66
2016-01-30T16:51:56.382Z,66
2016-01-30T16:52:08.648Z,65
2016-01-30T16:52:19.760Z,65
2016-01-30T16:52:31.041Z,65
2016-01-30T16:52:42.447Z,65
2016-01-30T16:52:53.697Z,66
2016-01-30T16:53:07.541Z,65
2016-01-30T16:53:18.185Z,66
2016-01-30T16:53:39.435Z,66
2016-01-30T16:53:51.450Z,66
2016-01-30T16:54:13.591Z,65
2016-01-30T16:54:24.157Z,65
2016-01-30T16:54:39.625Z,66
2016-01-30T16:54:52.469Z,66
2016-01-30T16:55:08.610Z,66
2016-01-30T16:55:20.080Z,66
2016-01-30T16:55:32.799Z,66
2016-01-30T16:55:45.143Z,65
2016-01-30T16:55:56.393Z,66
2016-01-30T16:56:09.784Z,66
2016-01-30T16:56:20.583Z,66
2016-01-30T16:56:31.271Z,66
2016-01-30T16:56:41.880Z,65
2016-01-30T16:56:53.208Z,65
2016-01-30T16:57:04.380Z,65
2016-01-30T16:57:17.180Z,65
2016-01-30T16:57:28.133Z,65
2016-01-30T16:57:40.228Z,65
2016-01-30T16:57:52.587Z,65
2016-01-30T16:59:06.246Z,65
2016-01-30T16:59:17.232Z,65
2016-01-30T16:59:27.935Z,65
2016-01-30T16:59:38.357Z,65
2016-01-30T16:59:50.498Z,66
2016-01-30T17:00:10.013Z,65
2016-01-30T17:01:19.927Z,65
2016-01-30T17:01:31.067Z,66
2016-01-30T17:01:45.458Z,65
2016-01-30T17:01:56.725Z,65
2016-01-30T17:02:07.960Z,65
2016-01-30T17:02:18.618Z,65
2016-01-30T17:02:30.040Z,66
2016-01-30T17:02:40.837Z,65
2016-01-30T17:02:51.540Z,65
2016-01-30T17:03:02.430Z,65
2016-01-30T17:03:32.448Z,65
2016-01-30T17:03:44.245Z,65
2016-01-30T17:03:57.073Z,65
2016-01-30T17:04:09.948Z,65
2016-01-30T17:04:25.170Z,65
2016-01-30T17:04:41.092Z,65
2016-01-30T17:04:54.764Z,65
2016-01-30T17:13:00.117Z,65
2016-01-30T17:13:13.601Z,65
2016-01-30T17:13:26.338Z,65
2016-01-30T17:13:40.292Z,65
2016-01-30T17:14:55.108Z,65
2016-01-30T17:15:11.217Z,65
2016-01-30T17:15:27.344Z,65
2016-01-30T17:15:40.079Z,66
2016-01-30T17:15:53.110Z,66
2016-01-30T17:16:06.829Z,66
2016-01-30T17:16:20.066Z,66
2016-01-30T17:16:32.769Z,66
2016-01-30T17:16:45.176Z,66
2016-01-30T17:17:02.819Z,65
2016-01-30T17:17:15.428Z,65
2016-01-30T17:17:32.431Z,65
2016-01-30T17:17:44.650Z,66
2016-01-30T17:17:59.228Z,65
2016-01-30T17:18:12.322Z,65
2016-01-30T17:18:25.730Z,66
2016-01-30T17:18:39.355Z,66
2016-01-30T17:18:52.652Z,66
2016-01-30T17:19:04.262Z,65
2016-01-30T17:21:43.539Z,65
2016-01-30T17:21:56.430Z,66
2016-01-30T17:22:09.602Z,66
2016-01-30T17:22:22.807Z,66
2016-01-30T17:22:33.869Z,66
2016-01-30T17:22:46.650Z,66
2016-01-30T17:23:00.963Z,66
2016-01-30T17:23:12.729Z,66
2016-01-30T17:23:24.091Z,66
2016-01-30T17:23:34.747Z,66
2016-01-30T17:23:45.653Z,66
2016-01-30T17:23:56.247Z,66
2016-01-30T17:24:07.091Z,66
2016-01-30T17:24:24.063Z,65
2016-01-30T17:24:34.547Z,65
2016-01-30T17:25:50.490Z,66
2016-01-30T17:26:03.177Z,66
2016-01-30T17:26:14.536Z,66
2016-01-30T17:26:25.321Z,66
2016-01-30T17:26:35.961Z,66
2016-01-30T17:26:46.493Z,66
2016-01-30T17:26:56.930Z,66
2016-01-30T17:27:07.368Z,66
2016-01-30T17:27:19.680Z,66
2016-01-30T17:27:30.416Z,66
2016-01-30T17:27:41.182Z,66
2016-01-30T17:27:51.838Z,66
2016-01-30T17:28:02.791Z,66
2016-01-30T17:28:13.635Z,67
2016-01-30T17:28:30.091Z,67
2016-01-30T17:28:42.029Z,67
2016-01-30T17:28:52.748Z,66
2016-01-30T17:29:05.357Z,66
2016-01-30T17:29:16.169Z,66
2016-01-30T17:29:27.813Z,66
2016-01-30T17:29:40.422Z,66
2016-01-30T17:29:52.502Z,67
2016-01-30T17:30:04.502Z,66
2016-01-30T17:30:16.423Z,66
2016-01-30T17:30:28.004Z,66
2016-01-30T17:30:44.004Z,66
2016-01-30T17:30:54.879Z,66
2016-01-30T17:31:05.425Z,66
2016-01-30T17:31:16.785Z,66
2016-01-30T17:31:27.569Z,66
2016-01-30T17:31:42.350Z,66
2016-01-30T17:31:57.303Z,66
2016-01-30T17:32:12.069Z,66
2016-01-30T17:32:22.757Z,66
2016-01-30T17:32:34.494Z,66
2016-01-30T17:32:48.103Z,66
2016-01-30T17:32:58.619Z,66
2016-01-30T17:33:10.306Z,66
2016-01-30T17:33:20.806Z,66
2016-01-30T17:34:23.263Z,66
2016-01-30T17:34:34.173Z,66
2016-01-30T17:34:47.517Z,66
2016-01-30T17:34:58.860Z,66
2016-01-30T17:35:12.642Z,67
2016-01-30T17:35:23.454Z,67
2016-01-30T17:35:35.909Z,67
2016-01-30T17:35:46.612Z,66
2016-01-30T17:35:57.206Z,66
2016-01-30T17:36:08.894Z,66
2016-01-30T17:36:19.520Z,66
2016-01-30T17:36:30.258Z,66
2016-01-30T17:36:40.961Z,66
2016-01-30T17:36:51.508Z,66
2016-01-30T17:37:02.023Z,66
2016-01-30T17:37:18.820Z,66
2016-01-30T17:37:30.072Z,67
2016-01-30T17:37:40.588Z,67
2016-01-30T17:37:51.385Z,67
2016-01-30T17:38:03.275Z,67
2016-01-30T17:38:15.057Z,67
2016-01-30T17:38:25.513Z,67
2016-01-30T17:38:36.669Z,66
2016-01-30T17:38:47.200Z,66
2016-01-30T17:38:57.497Z,66
2016-01-30T17:48:56.979Z,66
2016-01-30T17:49:10.059Z,66
2016-01-30T17:49:20.528Z,66
2016-01-30T17:49:32.625Z,66
2016-01-30T17:49:46.359Z,66
2016-01-30T17:49:57.291Z,66
2016-01-30T17:51:09.311Z,66
2016-01-30T17:51:22.357Z,66
2016-01-30T17:51:35.014Z,66
2016-01-30T17:51:48.639Z,67
2016-01-30T17:52:00.217Z,66
2016-01-30T17:52:12.579Z,66
2016-01-30T17:52:24.220Z,66
2016-01-30T17:52:36.798Z,65
2016-01-30T17:52:50.360Z,65
2016-01-30T17:53:05.284Z,66
2016-01-30T17:53:19.175Z,66
2016-01-30T17:53:31.098Z,66
2016-01-30T17:53:44.332Z,65
2016-01-30T17:53:56.676Z,66
2016-01-30T17:54:12.679Z,66
2016-01-30T17:54:22.944Z,66
2016-01-30T17:54:33.648Z,66
2016-01-30T17:54:50.085Z,66
2016-01-30T17:55:03.148Z,66
2016-01-30T17:55:14.635Z,66
2016-01-30T17:55:25.479Z,66
2016-01-30T17:55:36.653Z,67
2016-01-30T17:55:50.184Z,67
2016-01-30T17:56:03.293Z,67
2016-01-30T17:57:12.392Z,65
2016-01-30T17:57:24.689Z,65
2016-01-30T17:57:36.454Z,66
2016-01-30T18:07:10.499Z,67
2016-01-30T18:07:22.127Z,66
2016-01-30T18:07:32.564Z,67
2016-01-30T18:07:45.143Z,66
2016-01-30T18:07:56.486Z,66
2016-01-30T18:08:12.971Z,66
2016-01-30T18:08:24.271Z,66
2016-01-30T18:08:36.416Z,66
2016-01-30T18:08:46.885Z,67
2016-01-30T18:08:57.791Z,67
2016-01-30T18:09:08.994Z,67
2016-01-30T18:09:19.402Z,67
2016-01-30T18:09:32.106Z,67
2016-01-30T18:09:43.543Z,67
2016-01-30T18:09:56.043Z,67
2016-01-30T18:10:07.340Z,67
2016-01-30T18:10:22.734Z,67
2016-01-30T18:10:33.296Z,67
2016-01-30T18:16:41.845Z,65
2016-01-30T18:16:54.423Z,65
2016-01-30T18:17:11.517Z,65
2016-01-30T18:17:24.067Z,66
2016-01-30T18:17:34.973Z,65
2016-01-30T18:17:45.208Z,65
2016-01-30T18:25:48.067Z,66
2016-01-30T18:25:58.473Z,66
2016-01-30T18:26:09.457Z,66
2016-01-30T18:26:20.382Z,65
2016-01-30T18:26:32.304Z,65
2016-01-30T18:26:44.413Z,65
2016-01-30T18:26:54.835Z,65
2016-01-30T18:27:06.241Z,65
2016-01-30T18:27:19.010Z,65
2016-01-30T18:27:29.682Z,65
2016-01-30T18:27:40.104Z,65
2016-01-30T18:28:43.576Z,66
2016-01-30T18:28:55.279Z,65
2016-01-30T18:29:10.388Z,65
2016-01-30T18:29:22.704Z,65
2016-01-30T18:29:34.610Z,65
2016-01-30T18:30:43.613Z,65
2016-01-30T18:30:54.113Z,65
2016-01-30T18:31:04.535Z,65
2016-01-30T18:31:15.878Z,66
2016-01-30T18:31:30.193Z,65
2016-01-30T18:31:45.787Z,65
2016-01-30T18:31:56.709Z,65
2016-01-30T18:32:08.274Z,66
2016-01-30T18:32:20.886Z,66
2016-01-30T18:32:32.824Z,66
2016-01-30T18:33:39.233Z,66
2016-01-30T18:33:52.389Z,66
2016-01-30T18:34:03.436Z,66
2016-01-30T18:34:27.563Z,66
2016-01-30T18:34:41.813Z,66
2016-01-30T18:34:54.423Z,66
2016-01-30T18:35:09.344Z,66
2016-01-30T18:35:25.472Z,66
2016-01-30T18:36:32.695Z,66
2016-01-30T18:36:44.976Z,66
2016-01-30T18:36:57.211Z,66
2016-01-30T18:37:09.242Z,66
2016-01-30T18:37:21.525Z,66
2016-01-30T18:37:34.525Z,66
2016-01-30T18:37:46.947Z,66
2016-01-30T18:38:00.447Z,66
2016-01-30T18:38:15.900Z,66
2016-01-30T18:38:29.935Z,66
2016-01-30T18:39:42.737Z,66
2016-01-30T18:39:53.300Z,66
2016-01-30T18:40:06.191Z,66
2016-01-30T18:40:20.927Z,67
2016-01-30T18:40:32.302Z,67
2016-01-30T18:40:45.005Z,66
2016-01-30T18:40:57.333Z,67
2016-01-30T18:41:08.333Z,66
2016-01-30T18:41:18.899Z,66
2016-01-30T18:41:29.539Z,66
2016-01-30T18:41:40.492Z,66
2016-01-30T18:41:51.399Z,66
2016-01-30T18:43:44.920Z,67
2016-01-30T18:43:55.670Z,67
2016-01-30T18:44:06.514Z,67
2016-01-30T18:44:17.014Z,67
2016-01-30T18:44:27.329Z,67
2016-01-30T18:44:39.594Z,66
2016-01-30T18:44:53.704Z,66
2016-01-30T18:45:05.516Z,67
2016-01-30T18:46:09.800Z,67
2016-01-30T18:46:20.381Z,66
2016-01-30T18:46:32.147Z,66
2016-01-30T18:46:47.444Z,66
2016-01-30T18:46:57.835Z,66
2016-01-30T18:47:10.289Z,66
2016-01-30T18:47:22.431Z,66
2016-01-30T18:47:32.837Z,66
2016-01-30T18:53:35.435Z,67
2016-01-30T19:10:52.520Z,66
2016-01-30T19:11:06.895Z,66
2016-01-30T19:11:20.223Z,67
2016-01-30T19:11:35.209Z,66
2016-01-30T19:11:54.209Z,66
2016-01-30T19:12:07.522Z,66
2016-01-30T19:12:22.584Z,66
2016-01-30T19:12:37.509Z,66
2016-01-30T19:19:55.955Z,67
2016-01-30T19:21:10.380Z,67
2016-01-30T19:21:22.677Z,67
2016-01-30T19:21:35.552Z,67
2016-01-30T19:21:45.959Z,67
2016-01-30T19:22:00.602Z,67
2016-01-30T19:22:11.915Z,67
2016-01-30T19:23:14.263Z,67
2016-01-30T19:23:26.122Z,67
2016-01-30T19:23:39.341Z,67
2016-01-30T19:23:50.497Z,66
2016-01-30T19:24:02.999Z,66
2016-01-30T19:24:16.171Z,67
2016-01-30T19:24:29.936Z,67
2016-01-30T19:24:42.593Z,67
2016-01-30T19:25:44.846Z,67
2016-01-30T19:25:57.442Z,67
2016-01-30T19:26:11.133Z,67
2016-01-30T19:26:22.617Z,67
2016-01-30T19:26:37.149Z,67
2016-01-30T19:26:50.524Z,67
2016-01-30T19:27:02.836Z,67
2016-01-30T19:27:20.666Z,67
2016-01-30T19:27:32.744Z,67
2016-01-30T19:27:45.463Z,67
2016-01-30T19:29:20.500Z,68
2016-01-30T19:29:32.641Z,68
2016-01-30T19:29:44.875Z,68
2016-01-30T19:29:57.500Z,67
2016-01-30T19:30:13.221Z,67
2016-01-30T19:30:24.081Z,67
2016-01-30T19:30:34.566Z,67
2016-01-30T19:30:47.206Z,67
2016-01-30T19:30:57.613Z,67
2016-01-30T19:31:08.725Z,66
2016-01-30T19:31:19.288Z,67
2016-01-30T19:31:32.491Z,67
2016-01-30T19:31:44.709Z,67
2016-01-30T19:31:54.991Z,67
2016-01-30T19:33:04.744Z,67
2016-01-30T19:33:15.808Z,68
2016-01-30T19:33:32.605Z,67
2016-01-30T19:33:43.933Z,67
2016-01-30T19:33:54.480Z,67
2016-01-30T19:34:04.683Z,67
2016-01-30T19:34:15.467Z,67
2016-01-30T19:34:26.327Z,67
2016-01-30T19:34:39.923Z,67
2016-01-30T19:34:50.564Z,67
2016-01-30T19:35:06.486Z,67
2016-01-30T19:35:18.364Z,67
2016-01-30T19:35:29.317Z,67
2016-01-30T19:35:44.505Z,67
2016-01-30T19:35:56.630Z,68
2016-01-30T19:36:08.270Z,67
2016-01-30T19:36:21.147Z,67
2016-01-30T19:36:31.772Z,67
2016-01-30T19:36:43.866Z,67
2016-01-30T19:36:54.522Z,67
2016-01-30T19:37:07.366Z,68
2016-01-30T19:37:20.635Z,68
2016-01-30T19:37:34.041Z,68
2016-01-30T19:37:47.041Z,68
2016-01-30T19:38:11.416Z,67
2016-01-30T19:38:22.591Z,67
2016-01-30T19:38:35.169Z,67
2016-01-30T19:38:50.419Z,67
2016-01-30T19:39:02.997Z,67
2016-01-30T19:47:25.993Z,67
2016-01-30T19:47:39.383Z,67
2016-01-30T19:47:50.086Z,67
2016-01-30T19:48:02.540Z,67
2016-01-30T19:48:13.477Z,67
2016-01-30T19:48:26.152Z,67
2016-01-30T19:48:36.793Z,66
2016-01-30T19:48:47.371Z,66
2016-01-30T19:49:00.527Z,67
2016-01-30T19:49:12.964Z,67
2016-01-30T19:49:23.967Z,67
2016-01-30T19:49:34.296Z,67
2016-01-30T19:49:47.323Z,67
2016-01-30T19:56:50.031Z,67
2016-01-30T19:57:01.563Z,67
2016-01-30T19:57:15.625Z,67
2016-01-30T19:58:21.240Z,67
2016-01-30T19:58:32.475Z,67
2016-01-30T19:58:43.084Z,67
2016-01-30T19:58:55.615Z,67
2016-01-30T20:00:06.830Z,67
2016-01-30T20:00:22.761Z,67
2016-01-30T20:00:39.700Z,67
2016-01-30T20:00:50.581Z,66
2016-01-30T20:01:02.050Z,66
2016-01-30T20:01:14.519Z,66
2016-01-30T20:01:26.928Z,66
2016-01-30T20:01:43.131Z,66
2016-01-30T20:01:57.386Z,66
2016-01-30T20:02:15.985Z,67
2016-01-30T20:05:47.810Z,67
2016-01-30T20:05:59.888Z,67
2016-01-30T20:06:13.451Z,67
2016-01-30T20:06:24.970Z,67
2016-01-30T20:06:37.845Z,66
2016-01-30T20:06:51.361Z,66
2016-01-30T20:07:03.455Z,66
2016-01-30T20:07:15.470Z,67
2016-01-30T20:07:27.254Z,67
2016-01-30T20:07:40.488Z,67
2016-01-30T20:07:52.347Z,66
2016-01-30T20:08:05.207Z,66
2016-01-30T20:08:17.441Z,66
2016-01-30T20:08:29.132Z,66
2016-01-30T20:08:41.507Z,66
2016-01-30T20:08:51.741Z,66
2016-01-30T20:23:52.749Z,66
2016-01-30T20:24:05.624Z,66
2016-01-30T20:24:20.472Z,66
2016-01-30T20:24:34.784Z,67
2016-01-30T20:24:46.987Z,67
2016-01-30T20:25:50.350Z,66
2016-01-30T20:26:01.287Z,66
2016-01-30T20:26:12.540Z,66
2016-01-30T20:26:23.915Z,66
2016-01-30T20:26:34.696Z,66
2016-01-30T20:26:48.274Z,67
2016-01-30T20:27:00.899Z,67
2016-01-30T20:27:14.527Z,67
2016-01-30T20:27:29.902Z,67
2016-01-30T20:28:38.689Z,66
2016-01-30T20:28:50.595Z,66
2016-01-30T20:29:08.470Z,66
2016-01-30T20:29:20.598Z,67
2016-01-30T20:29:34.801Z,67
2016-01-30T20:29:47.817Z,66
2016-01-30T20:30:00.051Z,66
2016-01-30T20:30:13.757Z,66
2016-01-30T20:30:24.679Z,66
2016-01-30T20:30:37.570Z,66
2016-01-30T20:30:48.257Z,66
2016-01-30T20:31:00.788Z,66
2016-01-30T20:31:18.087Z,66
2016-01-30T20:31:30.712Z,66
2016-01-30T20:31:42.525Z,66
2016-01-30T20:31:54.447Z,67
2016-01-30T20:32:07.587Z,66
2016-01-30T20:32:20.684Z,66
2016-01-30T20:32:47.263Z,67
2016-01-30T20:33:01.482Z,67
2016-01-30T20:33:13.031Z,67
2016-01-30T20:33:24.718Z,67
2016-01-30T20:33:39.140Z,67
2016-01-30T20:33:51.843Z,67
2016-01-30T20:34:04.343Z,67
2016-01-30T20:34:15.002Z,67
2016-01-30T20:34:27.612Z,67
2016-01-30T20:34:40.471Z,67
2016-01-30T20:34:53.049Z,67
2016-01-30T20:35:08.909Z,67
2016-01-30T20:35:21.662Z,67
2016-01-30T20:35:33.255Z,67
2016-01-30T20:35:45.615Z,66
2016-01-30T20:35:58.818Z,66
2016-01-30T20:36:10.084Z,66
2016-01-30T20:36:22.633Z,66
2016-01-30T20:36:33.462Z,66
2016-01-30T20:36:48.852Z,66
2016-01-30T20:37:02.102Z,65
2016-01-30T20:37:15.685Z,65
2016-01-30T20:37:28.998Z,65
2016-01-30T20:37:41.154Z,65
2016-01-30T20:42:05.088Z,66
2016-01-30T20:42:15.559Z,67
2016-01-30T20:42:27.699Z,67
2016-01-30T20:42:38.715Z,66
2016-01-30T20:42:49.105Z,66
2016-01-30T20:42:59.715Z,66
2016-01-30T20:43:10.699Z,66
2016-01-30T20:43:21.202Z,66
2016-01-30T20:43:32.766Z,66
2016-01-30T20:43:51.016Z,66
2016-01-30T20:44:01.891Z,66
2016-01-30T20:44:15.191Z,66
2016-01-30T20:44:26.800Z,66
2016-01-30T21:00:05.462Z,65
2016-01-30T21:00:20.621Z,65
2016-01-30T21:09:11.992Z,65
2016-01-30T21:09:28.580Z,64
2016-01-30T21:09:42.299Z,65
2016-01-30T21:09:59.111Z,64
2016-01-30T21:10:14.158Z,64
2016-01-30T21:10:29.167Z,64
2016-01-30T21:10:40.964Z,65
2016-01-30T21:10:53.761Z,65
2016-01-30T21:18:40.869Z,72
2016-01-30T21:18:53.259Z,72
2016-01-30T21:19:04.323Z,73
2016-01-30T21:19:17.510Z,73
2016-01-30T21:19:30.066Z,73
2016-01-30T21:19:40.525Z,73
2016-01-30T21:19:52.525Z,73
2016-01-30T21:20:07.042Z,73
2016-01-30T21:20:21.105Z,74
2016-01-30T21:20:32.230Z,73
2016-01-30T21:20:42.871Z,73
2016-01-30T21:20:53.418Z,74
2016-01-30T21:21:04.779Z,73
2016-01-30T21:21:15.654Z,74
2016-01-30T21:21:26.029Z,74
2016-01-30T21:21:36.748Z,74
2016-01-30T21:21:47.060Z,74
2016-01-30T21:22:01.185Z,74
2016-01-30T21:22:14.344Z,74
2016-01-30T21:22:24.829Z,74
2016-01-30T21:22:35.204Z,74
2016-01-30T21:22:45.595Z,74
2016-01-30T21:27:55.704Z,72
2016-01-30T21:28:08.269Z,72
2016-01-30T21:28:21.050Z,72
2016-01-30T21:28:32.909Z,72
2016-01-30T21:28:46.659Z,72
2016-01-30T21:29:00.050Z,71
2016-01-30T21:29:12.614Z,71
2016-01-30T21:36:26.814Z,69
2016-01-30T21:36:39.049Z,69
2016-01-30T21:37:52.176Z,69
2016-01-30T21:39:11.460Z,68
2016-01-30T21:39:22.494Z,68
2016-01-30T21:39:36.728Z,68
2016-01-30T21:39:47.198Z,68
2016-01-30T21:39:57.667Z,68
2016-01-30T21:40:09.636Z,68
2016-01-30T21:40:21.309Z,68
2016-01-30T21:40:31.622Z,69
2016-01-30T21:40:42.247Z,69
2016-01-30T21:40:52.888Z,69
2016-01-30T21:41:03.575Z,69
2016-01-30T21:41:14.484Z,69
2016-01-30T21:41:26.078Z,70
2016-01-30T21:41:38.234Z,70
2016-01-30T21:41:49.203Z,69
2016-01-30T21:42:02.750Z,69
2016-01-30T21:42:13.859Z,69
2016-01-30T21:42:46.628Z,69
2016-01-30T21:44:07.442Z,69
2016-01-30T21:44:18.039Z,69
2016-01-30T21:44:29.320Z,69
2016-01-30T21:44:39.945Z,69
2016-01-30T21:44:50.695Z,69
2016-01-30T21:45:01.602Z,69
2016-01-30T21:45:13.274Z,69
2016-01-30T21:45:43.464Z,70
2016-01-30T21:45:55.308Z,70
2016-01-30T21:55:10.008Z,73
2016-01-30T21:55:23.510Z,73
2016-01-30T21:55:34.869Z,73
2016-01-30T22:03:52.253Z,74
2016-01-30T22:04:04.722Z,74
2016-01-30T22:04:20.755Z,74
2016-01-30T22:04:31.224Z,74
2016-01-30T22:04:41.740Z,74
2016-01-30T22:04:52.271Z,74
2016-01-30T22:05:04.271Z,74
2016-01-30T22:05:16.771Z,74
2016-01-30T22:05:27.352Z,74
2016-01-30T22:05:37.774Z,74
2016-01-30T22:05:48.337Z,74
2016-01-30T22:05:58.931Z,73
2016-01-30T22:06:09.291Z,74
2016-01-30T22:06:19.572Z,73
2016-01-30T22:06:31.450Z,74
2016-01-30T22:06:42.778Z,74
2016-01-30T22:06:54.840Z,74
2016-01-30T22:07:06.700Z,73
2016-01-30T22:07:17.231Z,74
2016-01-30T22:07:27.671Z,74
2016-01-30T22:07:38.796Z,74
2016-01-30T22:07:50.561Z,74
2016-01-30T22:08:01.202Z,74
2016-01-30T22:08:14.358Z,73
2016-01-30T22:08:28.205Z,73
2016-01-30T22:08:40.299Z,73
2016-01-30T22:08:52.939Z,73
2016-01-30T22:09:08.658Z,73
2016-01-30T22:09:20.645Z,73
2016-01-30T22:09:32.489Z,73
2016-01-30T22:09:43.817Z,73
2016-01-30T22:09:54.458Z,73
2016-01-30T22:10:08.679Z,73
2016-01-30T22:10:21.510Z,73
2016-01-30T22:10:38.916Z,73
2016-01-30T22:10:51.572Z,73
2016-01-30T22:11:02.494Z,73
2016-01-30T22:11:12.994Z,73
2016-01-30T22:11:23.841Z,73
2016-01-30T22:11:34.372Z,73
2016-01-30T22:11:45.075Z,73
2016-01-30T22:11:55.888Z,73
2016-01-30T22:12:06.497Z,73
2016-01-30T22:12:16.997Z,73
2016-01-30T22:12:27.405Z,73
2016-01-30T22:13:18.655Z,73
2016-01-30T22:13:29.283Z,73
2016-01-30T22:13:39.799Z,73
2016-01-30T22:13:50.502Z,73
2016-01-30T22:14:01.236Z,73
2016-01-30T22:14:11.799Z,73
2016-01-30T22:14:22.522Z,73
2016-01-30T22:14:33.334Z,73
2016-01-30T22:14:43.881Z,73
2016-01-30T22:14:54.850Z,73
2016-01-30T22:15:06.537Z,72
2016-01-30T22:15:19.490Z,72
2016-01-30T22:15:30.602Z,72
2016-01-30T22:15:41.251Z,72
2016-01-30T22:15:52.689Z,72
2016-01-30T22:16:03.579Z,72
2016-01-30T22:16:14.345Z,72
2016-01-30T22:16:25.396Z,72
2016-01-30T22:16:36.240Z,72
2016-01-30T22:16:47.083Z,72
2016-01-30T22:16:58.021Z,72
2016-01-30T22:17:09.130Z,72
2016-01-30T22:17:20.365Z,72
2016-01-30T22:17:31.085Z,72
2016-01-30T22:17:41.851Z,72
2016-01-30T22:17:52.851Z,72
2016-01-30T22:18:03.929Z,72
2016-01-30T22:18:15.476Z,72
2016-01-30T22:18:26.307Z,73
2016-01-30T22:18:37.088Z,73
2016-01-30T22:21:59.788Z,71
2016-01-30T22:22:10.460Z,71
2016-01-30T22:22:21.241Z,71
2016-01-30T22:31:04.580Z,70
2016-01-30T22:31:15.049Z,70
2016-01-30T22:31:25.693Z,70
2016-01-30T22:31:36.521Z,70
2016-01-30T22:31:47.193Z,70
2016-01-30T22:31:57.739Z,70
2016-01-30T22:32:08.849Z,70
2016-01-30T22:32:19.489Z,70
2016-01-30T22:32:30.101Z,69
2016-01-30T22:32:40.632Z,69
2016-01-30T22:32:51.241Z,70
2016-01-30T22:33:01.835Z,70
2016-01-30T22:33:12.663Z,70
2016-01-30T22:33:23.991Z,70
2016-01-30T22:33:34.823Z,70
2016-01-30T22:33:45.510Z,69
2016-01-30T22:33:56.199Z,69
2016-01-30T22:34:06.683Z,69